sensor_id;sensor_type;location;lat;lon;timestamp;pressure;altitude;pressure_sealevel;temperature;humidity
71716;BME280;59568;52.128;5.434;2023-02-13T00:00:21;103961.91;;;6.30;85.05
71716;BME280;59568;52.128;5.434;2023-02-13T00:02:48;103957.69;;;6.29;84.96
71716;BME280;59568;52.128;5.434;2023-02-13T00:05:15;103959.47;;;6.29;84.80
71716;BME280;59568;52.128;5.434;2023-02-13T00:07:42;103954.13;;;6.30;85.12
71716;BME280;59568;52.128;5.434;2023-02-13T00:10:09;103960.28;;;6.29;85.10
71716;BME280;59568;52.128;5.434;2023-02-13T00:12:36;103959.66;;;6.27;85.13
71716;BME280;59568;52.128;5.434;2023-02-13T00:15:03;103952.84;;;6.26;84.93
71716;BME280;59568;52.128;5.434;2023-02-13T00:17:30;103954.47;;;6.27;85.09
71716;BME280;59568;52.128;5.434;2023-02-13T00:19:57;103951.06;;;6.27;85.05
71716;BME280;59568;52.128;5.434;2023-02-13T00:22:23;103950.06;;;6.28;85.16
71716;BME280;59568;52.128;5.434;2023-02-13T00:24:50;103950.88;;;6.28;85.24
71716;BME280;59568;52.128;5.434;2023-02-13T00:27:17;103945.69;;;6.28;85.04
71716;BME280;59568;52.128;5.434;2023-02-13T00:29:44;103946.66;;;6.27;85.17
71716;BME280;59568;52.128;5.434;2023-02-13T00:32:10;103948.28;;;6.28;85.08
71716;BME280;59568;52.128;5.434;2023-02-13T00:34:37;103942.28;;;6.28;85.00
71716;BME280;59568;52.128;5.434;2023-02-13T00:37:04;103940.22;;;6.23;85.22
71716;BME280;59568;52.128;5.434;2023-02-13T00:39:30;103934.06;;;6.24;85.24
71716;BME280;59568;52.128;5.434;2023-02-13T00:41:57;103937.44;;;6.25;85.08
71716;BME280;59568;52.128;5.434;2023-02-13T00:44:23;103947.03;;;6.24;85.33
71716;BME280;59568;52.128;5.434;2023-02-13T00:46:53;103941.84;;;6.24;85.38
71716;BME280;59568;52.128;5.434;2023-02-13T00:49:19;103935.03;;;6.23;85.31
71716;BME280;59568;52.128;5.434;2023-02-13T00:51:46;103938.63;;;6.22;85.10
71716;BME280;59568;52.128;5.434;2023-02-13T00:54:13;103935.19;;;6.22;85.01
71716;BME280;59568;52.128;5.434;2023-02-13T00:56:40;103934.41;;;6.21;85.06
71716;BME280;59568;52.128;5.434;2023-02-13T00:59:06;103932.97;;;6.18;85.20
71716;BME280;59568;52.128;5.434;2023-02-13T01:01:33;103934.56;;;6.19;85.55
71716;BME280;59568;52.128;5.434;2023-02-13T01:04:00;103935.75;;;6.17;85.16
71716;BME280;59568;52.128;5.434;2023-02-13T01:06:26;103931.19;;;6.19;85.35
71716;BME280;59568;52.128;5.434;2023-02-13T01:08:55;103930.56;;;6.17;85.42
71716;BME280;59568;52.128;5.434;2023-02-13T01:11:22;103927.94;;;6.17;85.65
71716;BME280;59568;52.128;5.434;2023-02-13T01:13:49;103940.75;;;6.18;85.18
71716;BME280;59568;52.128;5.434;2023-02-13T01:16:15;103930.72;;;6.15;85.68
71716;BME280;59568;52.128;5.434;2023-02-13T01:18:43;103929.94;;;6.15;85.48
71716;BME280;59568;52.128;5.434;2023-02-13T01:21:18;103938.50;;;6.15;85.33
71716;BME280;59568;52.128;5.434;2023-02-13T01:23:45;103938.72;;;6.14;85.61
71716;BME280;59568;52.128;5.434;2023-02-13T01:26:16;103933.53;;;6.14;85.70
71716;BME280;59568;52.128;5.434;2023-02-13T01:28:43;103933.69;;;6.12;85.47
71716;BME280;59568;52.128;5.434;2023-02-13T01:31:10;103934.66;;;6.11;85.80
71716;BME280;59568;52.128;5.434;2023-02-13T01:33:37;103933.88;;;6.11;85.67
71716;BME280;59568;52.128;5.434;2023-02-13T01:36:06;103924.47;;;6.10;85.50
71716;BME280;59568;52.128;5.434;2023-02-13T01:38:32;103926.44;;;6.08;85.72
71716;BME280;59568;52.128;5.434;2023-02-13T01:40:59;103927.25;;;6.08;85.66
71716;BME280;59568;52.128;5.434;2023-02-13T01:43:58;103930.63;;;6.09;85.88
71716;BME280;59568;52.128;5.434;2023-02-13T01:46:37;103935.03;;;6.08;85.93
71716;BME280;59568;52.128;5.434;2023-02-13T01:49:15;103926.44;;;6.08;85.57
71716;BME280;59568;52.128;5.434;2023-02-13T01:51:48;103921.25;;;6.08;85.75
71716;BME280;59568;52.128;5.434;2023-02-13T01:54:19;103919.78;;;6.05;86.02
71716;BME280;59568;52.128;5.434;2023-02-13T01:56:52;103913.19;;;6.03;86.03
71716;BME280;59568;52.128;5.434;2023-02-13T01:59:24;103919.16;;;6.03;86.08
71716;BME280;59568;52.128;5.434;2023-02-13T02:01:52;103919.34;;;6.02;85.83
71716;BME280;59568;52.128;5.434;2023-02-13T02:04:24;103919.34;;;6.02;86.12
71716;BME280;59568;52.128;5.434;2023-02-13T02:06:57;103911.56;;;6.02;86.12
71716;BME280;59568;52.128;5.434;2023-02-13T02:09:27;103913.97;;;6.03;86.43
71716;BME280;59568;52.128;5.434;2023-02-13T02:12:00;103908.97;;;6.02;86.28
71716;BME280;59568;52.128;5.434;2023-02-13T02:14:29;103908.34;;;5.99;86.36
71716;BME280;59568;52.128;5.434;2023-02-13T02:16:57;103909.97;;;6.00;86.03
71716;BME280;59568;52.128;5.434;2023-02-13T02:28:13;103907.38;;;6.00;86.21
71716;BME280;59568;52.128;5.434;2023-02-13T02:33:24;103913.53;;;5.99;86.19
71716;BME280;59568;52.128;5.434;2023-02-13T02:38:43;103918.72;;;5.99;86.40
71716;BME280;59568;52.128;5.434;2023-02-13T02:44:11;103907.38;;;6.00;86.33
71716;BME280;59568;52.128;5.434;2023-02-13T02:47:07;103903.13;;;5.99;86.19
71716;BME280;59568;52.128;5.434;2023-02-13T02:58:39;103904.78;;;6.00;86.34
71716;BME280;59568;52.128;5.434;2023-02-13T03:01:24;103897.16;;;5.99;86.41
71716;BME280;59568;52.128;5.434;2023-02-13T03:04:23;103896.34;;;5.98;86.52
71716;BME280;59568;52.128;5.434;2023-02-13T03:07:10;103891.78;;;6.00;86.11
71716;BME280;59568;52.128;5.434;2023-02-13T03:09:42;103892.75;;;5.99;86.37
71716;BME280;59568;52.128;5.434;2023-02-13T03:12:34;103893.59;;;6.00;86.64
71716;BME280;59568;52.128;5.434;2023-02-13T03:15:22;103892.97;;;5.98;86.61
71716;BME280;59568;52.128;5.434;2023-02-13T03:17:51;103898.94;;;5.98;86.49
71716;BME280;59568;52.128;5.434;2023-02-13T03:20:54;103897.31;;;5.97;86.77
71716;BME280;59568;52.128;5.434;2023-02-13T03:26:28;103903.50;;;5.96;86.56
71716;BME280;59568;52.128;5.434;2023-02-13T03:29:20;103901.88;;;5.95;86.55
71716;BME280;59568;52.128;5.434;2023-02-13T03:32:19;103905.09;;;5.97;86.78
71716;BME280;59568;52.128;5.434;2023-02-13T03:34:57;103900.75;;;5.98;86.49
71716;BME280;59568;52.128;5.434;2023-02-13T03:37:49;103899.13;;;5.97;86.50
71716;BME280;59568;52.128;5.434;2023-02-13T03:40:48;103897.16;;;5.99;86.47
71716;BME280;59568;52.128;5.434;2023-02-13T03:46:15;103896.19;;;6.00;86.76
71716;BME280;59568;52.128;5.434;2023-02-13T03:48:44;103907.38;;;6.00;86.86
71716;BME280;59568;52.128;5.434;2023-02-13T03:51:38;103902.34;;;5.99;86.72
71716;BME280;59568;52.128;5.434;2023-02-13T03:54:20;103894.38;;;6.00;86.57
71716;BME280;59568;52.128;5.434;2023-02-13T03:57:08;103898.16;;;5.98;86.65
71716;BME280;59568;52.128;5.434;2023-02-13T03:59:56;103895.56;;;5.98;86.97
71716;BME280;59568;52.128;5.434;2023-02-13T04:02:29;103901.72;;;5.97;86.92
71716;BME280;59568;52.128;5.434;2023-02-13T04:05:14;103899.91;;;5.97;86.96
71716;BME280;59568;52.128;5.434;2023-02-13T04:07:42;103891.34;;;5.97;87.44
71716;BME280;59568;52.128;5.434;2023-02-13T04:10:12;103893.31;;;5.95;87.22
71716;BME280;59568;52.128;5.434;2023-02-13T04:12:59;103891.50;;;5.95;87.11
71716;BME280;59568;52.128;5.434;2023-02-13T04:15:41;103889.09;;;5.94;87.63
71716;BME280;59568;52.128;5.434;2023-02-13T04:18:10;103894.28;;;5.94;87.29
71716;BME280;59568;52.128;5.434;2023-02-13T04:20:40;103898.63;;;5.93;87.21
71716;BME280;59568;52.128;5.434;2023-02-13T04:23:08;103894.28;;;5.94;87.62
71716;BME280;59568;52.128;5.434;2023-02-13T04:25:37;103891.50;;;5.95;87.50
71716;BME280;59568;52.128;5.434;2023-02-13T04:28:04;103899.28;;;5.95;87.28
71716;BME280;59568;52.128;5.434;2023-02-13T04:30:32;103901.22;;;5.93;87.57
71716;BME280;59568;52.128;5.434;2023-02-13T04:32:58;103888.25;;;5.93;87.22
71716;BME280;59568;52.128;5.434;2023-02-13T04:35:25;103889.88;;;5.94;87.47
71716;BME280;59568;52.128;5.434;2023-02-13T04:37:51;103889.88;;;5.94;87.50
71716;BME280;59568;52.128;5.434;2023-02-13T04:40:18;103893.31;;;5.95;87.47
71716;BME280;59568;52.128;5.434;2023-02-13T04:42:46;103890.06;;;5.93;87.69
71716;BME280;59568;52.128;5.434;2023-02-13T04:45:14;103891.84;;;5.92;87.46
71716;BME280;59568;52.128;5.434;2023-02-13T04:47:41;103897.03;;;5.92;87.36
71716;BME280;59568;52.128;5.434;2023-02-13T04:50:08;103884.06;;;5.92;87.42
71716;BME280;59568;52.128;5.434;2023-02-13T04:52:36;103887.81;;;5.90;87.52
71716;BME280;59568;52.128;5.434;2023-02-13T04:55:03;103886.66;;;5.92;87.59
71716;BME280;59568;52.128;5.434;2023-02-13T04:57:29;103885.66;;;5.93;88.04
71716;BME280;59568;52.128;5.434;2023-02-13T04:59:56;103882.25;;;5.93;87.43
71716;BME280;59568;52.128;5.434;2023-02-13T05:02:22;103883.25;;;5.92;88.03
71716;BME280;59568;52.128;5.434;2023-02-13T05:04:49;103879.22;;;5.89;87.80
71716;BME280;59568;52.128;5.434;2023-02-13T05:07:16;103873.06;;;5.90;88.17
71716;BME280;59568;52.128;5.434;2023-02-13T05:09:42;103869.47;;;5.91;87.75
71716;BME280;59568;52.128;5.434;2023-02-13T05:12:09;103864.25;;;5.91;87.76
71716;BME280;59568;52.128;5.434;2023-02-13T05:14:36;103870.47;;;5.90;87.78
71716;BME280;59568;52.128;5.434;2023-02-13T05:17:02;103869.84;;;5.88;88.03
71716;BME280;59568;52.128;5.434;2023-02-13T05:19:29;103865.44;;;5.89;87.81
71716;BME280;59568;52.128;5.434;2023-02-13T05:21:55;103869.03;;;5.88;88.13
71716;BME280;59568;52.128;5.434;2023-02-13T05:24:40;103863.84;;;5.88;88.10
71716;BME280;59568;52.128;5.434;2023-02-13T05:27:07;103866.59;;;5.86;88.41
71716;BME280;59568;52.128;5.434;2023-02-13T05:29:34;103858.81;;;5.86;88.04
71716;BME280;59568;52.128;5.434;2023-02-13T05:32:01;103860.41;;;5.87;88.37
71716;BME280;59568;52.128;5.434;2023-02-13T05:34:28;103856.84;;;5.88;88.41
71716;BME280;59568;52.128;5.434;2023-02-13T05:36:57;103858.81;;;5.86;88.17
71716;BME280;59568;52.128;5.434;2023-02-13T05:39:24;103859.44;;;5.88;88.63
71716;BME280;59568;52.128;5.434;2023-02-13T05:41:50;103863.00;;;5.87;88.47
71716;BME280;59568;52.128;5.434;2023-02-13T05:44:17;103853.81;;;5.85;88.64
71716;BME280;59568;52.128;5.434;2023-02-13T05:46:44;103867.22;;;5.88;88.46
71716;BME280;59568;52.128;5.434;2023-02-13T05:49:12;103866.22;;;5.89;88.75
71716;BME280;59568;52.128;5.434;2023-02-13T05:51:39;103867.84;;;5.90;88.85
71716;BME280;59568;52.128;5.434;2023-02-13T05:54:06;103865.25;;;5.90;88.43
71716;BME280;59568;52.128;5.434;2023-02-13T05:56:32;103864.25;;;5.91;88.67
71716;BME280;59568;52.128;5.434;2023-02-13T05:58:59;103857.47;;;5.90;88.59
71716;BME280;59568;52.128;5.434;2023-02-13T06:01:26;103859.91;;;5.92;88.88
71716;BME280;59568;52.128;5.434;2023-02-13T06:03:52;103856.47;;;5.91;88.64
71716;BME280;59568;52.128;5.434;2023-02-13T06:06:19;103859.06;;;5.91;88.86
71716;BME280;59568;52.128;5.434;2023-02-13T06:08:46;103861.66;;;5.91;88.93
71716;BME280;59568;52.128;5.434;2023-02-13T06:11:13;103862.66;;;5.90;88.70
71716;BME280;59568;52.128;5.434;2023-02-13T06:13:40;103862.66;;;5.90;88.90
71716;BME280;59568;52.128;5.434;2023-02-13T06:16:08;103857.09;;;5.93;89.04
71716;BME280;59568;52.128;5.434;2023-02-13T06:18:35;103857.09;;;5.93;88.80
71716;BME280;59568;52.128;5.434;2023-02-13T06:21:02;103855.16;;;5.95;89.30
71716;BME280;59568;52.128;5.434;2023-02-13T06:23:29;103869.78;;;5.96;89.09
71716;BME280;59568;52.128;5.434;2023-02-13T06:25:56;103862.16;;;5.95;88.86
71716;BME280;59568;52.128;5.434;2023-02-13T06:28:26;103864.56;;;5.96;89.29
71716;BME280;59568;52.128;5.434;2023-02-13T06:30:53;103865.53;;;5.95;89.42
71716;BME280;59568;52.128;5.434;2023-02-13T06:33:20;103867.19;;;5.96;89.16
71716;BME280;59568;52.128;5.434;2023-02-13T06:35:47;103864.41;;;5.98;89.25
71716;BME280;59568;52.128;5.434;2023-02-13T06:38:13;103866.19;;;5.97;89.42
71716;BME280;59568;52.128;5.434;2023-02-13T06:40:40;103870.41;;;5.98;89.14
71716;BME280;59568;52.128;5.434;2023-02-13T06:43:08;103871.03;;;6.00;89.53
71716;BME280;59568;52.128;5.434;2023-02-13T06:45:36;103872.00;;;5.99;89.60
71716;BME280;59568;52.128;5.434;2023-02-13T06:48:03;103869.22;;;6.01;89.46
71716;BME280;59568;52.128;5.434;2023-02-13T06:50:29;103873.63;;;6.00;89.30
71716;BME280;59568;52.128;5.434;2023-02-13T06:52:56;103868.59;;;5.99;89.54
71716;BME280;59568;52.128;5.434;2023-02-13T06:55:22;103878.81;;;6.00;89.46
71716;BME280;59568;52.128;5.434;2023-02-13T06:57:49;103883.00;;;6.02;89.46
71716;BME280;59568;52.128;5.434;2023-02-13T07:00:16;103871.66;;;6.03;89.66
71716;BME280;59568;52.128;5.434;2023-02-13T07:02:44;103872.63;;;6.02;89.65
71716;BME280;59568;52.128;5.434;2023-02-13T07:05:12;103882.03;;;6.03;89.75
71716;BME280;59568;52.128;5.434;2023-02-13T07:07:40;103886.59;;;6.00;89.64
71716;BME280;59568;52.128;5.434;2023-02-13T07:10:10;103883.00;;;6.02;89.96
71716;BME280;59568;52.128;5.434;2023-02-13T07:12:38;103889.81;;;6.03;89.90
71716;BME280;59568;52.128;5.434;2023-02-13T07:15:05;103888.81;;;6.04;89.97
71716;BME280;59568;52.128;5.434;2023-02-13T07:17:31;103885.44;;;6.03;89.97
71716;BME280;59568;52.128;5.434;2023-02-13T07:19:59;103897.25;;;6.06;89.79
71716;BME280;59568;52.128;5.434;2023-02-13T07:22:26;103895.28;;;6.08;90.05
71716;BME280;59568;52.128;5.434;2023-02-13T07:24:52;103896.72;;;6.10;89.96
71716;BME280;59568;52.128;5.434;2023-02-13T07:27:19;103888.75;;;6.12;89.95
71716;BME280;59568;52.128;5.434;2023-02-13T07:29:46;103889.72;;;6.11;90.03
71716;BME280;59568;52.128;5.434;2023-02-13T07:32:12;103885.97;;;6.13;90.16
71716;BME280;59568;52.128;5.434;2023-02-13T07:34:39;103882.22;;;6.16;90.31
71716;BME280;59568;52.128;5.434;2023-02-13T07:37:27;103884.81;;;6.16;90.08
71716;BME280;59568;52.128;5.434;2023-02-13T07:39:54;103877.81;;;6.16;90.26
71716;BME280;59568;52.128;5.434;2023-02-13T07:42:21;103885.22;;;6.19;90.34
71716;BME280;59568;52.128;5.434;2023-02-13T07:44:47;103890.09;;;6.23;90.60
71716;BME280;59568;52.128;5.434;2023-02-13T07:47:17;103889.91;;;6.24;90.43
71716;BME280;59568;52.128;5.434;2023-02-13T07:49:45;103887.09;;;6.26;90.33
71716;BME280;59568;52.128;5.434;2023-02-13T07:52:12;103888.56;;;6.28;90.22
71716;BME280;59568;52.128;5.434;2023-02-13T07:54:38;103895.19;;;6.31;90.42
71716;BME280;59568;52.128;5.434;2023-02-13T07:57:13;103898.06;;;6.36;90.55
71716;BME280;59568;52.128;5.434;2023-02-13T07:59:40;103905.63;;;6.37;90.30
71716;BME280;59568;52.128;5.434;2023-02-13T08:02:11;103901.06;;;6.39;90.53
71716;BME280;59568;52.128;5.434;2023-02-13T08:04:40;103897.75;;;6.46;90.49
71716;BME280;59568;52.128;5.434;2023-02-13T08:07:06;103905.00;;;6.50;90.30
71716;BME280;59568;52.128;5.434;2023-02-13T08:09:33;103910.63;;;6.54;90.32
71716;BME280;59568;52.128;5.434;2023-02-13T08:12:18;103911.91;;;6.58;90.51
71716;BME280;59568;52.128;5.434;2023-02-13T08:14:45;103912.94;;;6.64;90.50
71716;BME280;59568;52.128;5.434;2023-02-13T08:17:11;103915.19;;;6.67;90.24
71716;BME280;59568;52.128;5.434;2023-02-13T08:19:39;103914.47;;;6.73;90.40
71716;BME280;59568;52.128;5.434;2023-02-13T08:22:05;103924.28;;;6.77;90.13
71716;BME280;59568;52.128;5.434;2023-02-13T08:24:32;103920.34;;;6.82;90.27
71716;BME280;59568;52.128;5.434;2023-02-13T08:26:59;103917.00;;;6.88;90.14
71716;BME280;59568;52.128;5.434;2023-02-13T08:29:25;103919.88;;;6.93;89.97
71716;BME280;59568;52.128;5.434;2023-02-13T08:31:52;103921.34;;;7.02;89.98
71716;BME280;59568;52.128;5.434;2023-02-13T08:34:18;103914.25;;;7.11;89.85
71716;BME280;59568;52.128;5.434;2023-02-13T08:36:45;103915.31;;;7.16;89.86
71716;BME280;59568;52.128;5.434;2023-02-13T08:39:12;103918.53;;;7.18;89.37
71716;BME280;59568;52.128;5.434;2023-02-13T08:41:38;103922.97;;;7.25;89.38
71716;BME280;59568;52.128;5.434;2023-02-13T08:44:05;103912.63;;;7.31;89.44
71716;BME280;59568;52.128;5.434;2023-02-13T08:46:32;103917.25;;;7.36;89.40
71716;BME280;59568;52.128;5.434;2023-02-13T08:48:58;103912.75;;;7.45;89.41
71716;BME280;59568;52.128;5.434;2023-02-13T08:51:25;103923.19;;;7.51;89.28
71716;BME280;59568;52.128;5.434;2023-02-13T08:53:52;103918.81;;;7.58;88.72
71716;BME280;59568;52.128;5.434;2023-02-13T08:56:18;103913.50;;;7.67;88.66
71716;BME280;59568;52.128;5.434;2023-02-13T08:58:48;103920.16;;;7.76;88.49
71716;BME280;59568;52.128;5.434;2023-02-13T09:01:15;103918.19;;;7.85;88.22
71716;BME280;59568;52.128;5.434;2023-02-13T09:03:42;103920.09;;;7.97;88.34
71716;BME280;59568;52.128;5.434;2023-02-13T09:06:09;103915.53;;;8.06;88.08
71716;BME280;59568;52.128;5.434;2023-02-13T09:08:35;103909.53;;;8.06;87.63
71716;BME280;59568;52.128;5.434;2023-02-13T09:11:03;103917.94;;;8.08;87.31
71716;BME280;59568;52.128;5.434;2023-02-13T09:13:33;103913.34;;;8.03;86.66
71716;BME280;59568;52.128;5.434;2023-02-13T09:16:04;103912.75;;;8.08;86.75
71716;BME280;59568;52.128;5.434;2023-02-13T09:18:32;103916.03;;;8.23;86.88
71716;BME280;59568;52.128;5.434;2023-02-13T09:21:00;103913.22;;;8.25;86.40
71716;BME280;59568;52.128;5.434;2023-02-13T09:23:33;103914.03;;;8.25;86.40
71716;BME280;59568;52.128;5.434;2023-02-13T09:26:01;103915.63;;;8.26;86.39
71716;BME280;59568;52.128;5.434;2023-02-13T09:28:29;103921.91;;;8.38;86.38
71716;BME280;59568;52.128;5.434;2023-02-13T09:30:57;103919.75;;;8.49;86.31
71716;BME280;59568;52.128;5.434;2023-02-13T09:33:25;103919.75;;;8.49;86.24
71716;BME280;59568;52.128;5.434;2023-02-13T09:35:51;103920.97;;;8.53;85.92
71716;BME280;59568;52.128;5.434;2023-02-13T09:38:18;103918.63;;;8.65;86.18
71716;BME280;59568;52.128;5.434;2023-02-13T09:40:56;103913.81;;;8.75;85.39
71716;BME280;59568;52.128;5.434;2023-02-13T09:46:00;103910.44;;;8.81;85.05
71716;BME280;59568;52.128;5.434;2023-02-13T09:48:33;103917.25;;;8.89;84.77
71716;BME280;59568;52.128;5.434;2023-02-13T09:51:03;103912.06;;;8.89;84.18
71716;BME280;59568;52.128;5.434;2023-02-13T09:53:30;103913.88;;;8.88;84.40
71716;BME280;59568;52.128;5.434;2023-02-13T09:58:48;103918.66;;;8.91;84.11
71716;BME280;59568;52.128;5.434;2023-02-13T10:01:22;103917.69;;;8.99;83.96
71716;BME280;59568;52.128;5.434;2023-02-13T10:06:33;103916.94;;;9.32;83.04
71716;BME280;59568;52.128;5.434;2023-02-13T10:09:32;103915.09;;;9.19;82.62
71716;BME280;59568;52.128;5.434;2023-02-13T10:17:30;103914.91;;;9.27;82.19
71716;BME280;59568;52.128;5.434;2023-02-13T10:20:03;103912.50;;;9.32;82.05
71716;BME280;59568;52.128;5.434;2023-02-13T10:22:45;103913.09;;;9.34;81.77
71716;BME280;59568;52.128;5.434;2023-02-13T10:25:21;103919.13;;;9.35;81.52
71716;BME280;59568;52.128;5.434;2023-02-13T10:27:57;103916.72;;;9.40;81.59
71716;BME280;59568;52.128;5.434;2023-02-13T10:30:44;103924.53;;;9.47;81.86
71716;BME280;59568;52.128;5.434;2023-02-13T10:33:20;103925.16;;;9.62;81.64
71716;BME280;59568;52.128;5.434;2023-02-13T10:36:24;103913.69;;;9.56;81.05
71716;BME280;59568;52.128;5.434;2023-02-13T10:38:59;103906.47;;;9.45;81.33
71716;BME280;59568;52.128;5.434;2023-02-13T10:44:23;103906.88;;;9.62;81.33
71716;BME280;59568;52.128;5.434;2023-02-13T10:50:09;103906.25;;;9.67;80.57
71716;BME280;59568;52.128;5.434;2023-02-13T10:53:00;103898.81;;;9.70;80.17
71716;BME280;59568;52.128;5.434;2023-02-13T10:58:19;103899.81;;;9.76;80.34
71716;BME280;59568;52.128;5.434;2023-02-13T11:00:50;103900.41;;;9.78;80.06
71716;BME280;59568;52.128;5.434;2023-02-13T11:03:24;103899.00;;;9.82;79.59
71716;BME280;59568;52.128;5.434;2023-02-13T11:05:52;103901.00;;;9.87;79.79
71716;BME280;59568;52.128;5.434;2023-02-13T11:08:31;103889.72;;;9.93;79.58
71716;BME280;59568;52.128;5.434;2023-02-13T11:10:58;103888.94;;;9.92;79.24
71716;BME280;59568;52.128;5.434;2023-02-13T11:13:27;103885.25;;;10.07;79.43
71716;BME280;59568;52.128;5.434;2023-02-13T11:16:04;103881.19;;;10.24;79.27
71716;BME280;59568;52.128;5.434;2023-02-13T11:18:35;103881.16;;;10.31;79.14
71716;BME280;59568;52.128;5.434;2023-02-13T11:21:13;103870.47;;;10.39;78.92
71716;BME280;59568;52.128;5.434;2023-02-13T11:23:43;103867.16;;;10.57;78.81
71716;BME280;59568;52.128;5.434;2023-02-13T11:26:19;103867.31;;;10.62;78.31
71716;BME280;59568;52.128;5.434;2023-02-13T11:28:50;103868.13;;;10.63;78.25
71716;BME280;59568;52.128;5.434;2023-02-13T11:31:30;103866.72;;;10.60;77.71
71716;BME280;59568;52.128;5.434;2023-02-13T11:33:59;103867.75;;;10.59;77.39
71716;BME280;59568;52.128;5.434;2023-02-13T11:36:42;103862.66;;;10.71;77.30
71716;BME280;59568;52.128;5.434;2023-02-13T11:39:20;103859.88;;;10.91;77.09
71716;BME280;59568;52.128;5.434;2023-02-13T11:41:48;103852.13;;;11.03;77.21
71716;BME280;59568;52.128;5.434;2023-02-13T11:44:34;103856.03;;;11.18;77.08
71716;BME280;59568;52.128;5.434;2023-02-13T11:47:01;103854.66;;;11.34;77.19
71716;BME280;59568;52.128;5.434;2023-02-13T11:49:33;103852.13;;;11.46;76.73
71716;BME280;59568;52.128;5.434;2023-02-13T11:52:22;103846.53;;;11.43;75.78
71716;BME280;59568;52.128;5.434;2023-02-13T11:55:23;103839.25;;;11.45;75.57
71716;BME280;59568;52.128;5.434;2023-02-13T11:58:04;103842.63;;;11.52;75.60
71716;BME280;59568;52.128;5.434;2023-02-13T12:00:47;103842.13;;;11.62;74.88
71716;BME280;59568;52.128;5.434;2023-02-13T12:08:39;103820.88;;;11.70;75.21
71716;BME280;59568;52.128;5.434;2023-02-13T12:14:24;103824.16;;;11.65;74.91
71716;BME280;59568;52.128;5.434;2023-02-13T12:16:59;103828.06;;;11.74;74.13
71716;BME280;59568;52.128;5.434;2023-02-13T12:19:43;103814.75;;;11.76;73.60
71716;BME280;59568;52.128;5.434;2023-02-13T12:22:30;103822.16;;;11.60;73.47
71716;BME280;59568;52.128;5.434;2023-02-13T12:28:15;103823.41;;;11.58;73.01
71716;BME280;59568;52.128;5.434;2023-02-13T12:31:17;103814.41;;;11.35;73.71
71716;BME280;59568;52.128;5.434;2023-02-13T12:39:30;103819.19;;;11.94;73.30
71716;BME280;59568;52.128;5.434;2023-02-13T12:42:46;103814.97;;;12.11;73.34
71716;BME280;59568;52.128;5.434;2023-02-13T12:56:21;103807.97;;;11.87;72.81
71716;BME280;59568;52.128;5.434;2023-02-13T12:59:19;103801.28;;;11.91;72.30
71716;BME280;59568;52.128;5.434;2023-02-13T13:06:48;103797.34;;;12.00;72.22
71716;BME280;59568;52.128;5.434;2023-02-13T13:09:26;103789.84;;;12.04;71.92
71716;BME280;59568;52.128;5.434;2023-02-13T13:12:16;103781.44;;;12.13;71.72
71716;BME280;59568;52.128;5.434;2023-02-13T13:17:36;103777.31;;;12.06;71.26
71716;BME280;59568;52.128;5.434;2023-02-13T13:20:59;103772.19;;;12.11;71.58
71716;BME280;59568;52.128;5.434;2023-02-13T13:28:40;103757.75;;;12.20;71.21
71716;BME280;59568;52.128;5.434;2023-02-13T13:31:09;103765.38;;;12.10;70.76
71716;BME280;59568;52.128;5.434;2023-02-13T13:33:40;103756.94;;;12.08;71.00
71716;BME280;59568;52.128;5.434;2023-02-13T13:41:35;103740.56;;;12.24;71.72
71716;BME280;59568;52.128;5.434;2023-02-13T13:44:15;103744.06;;;12.18;71.57
71716;BME280;59568;52.128;5.434;2023-02-13T13:46:58;103747.59;;;12.12;71.03
71716;BME280;59568;52.128;5.434;2023-02-13T13:49:49;103742.22;;;12.07;70.92
71716;BME280;59568;52.128;5.434;2023-02-13T13:52:29;103739.81;;;12.05;71.17
71716;BME280;59568;52.128;5.434;2023-02-13T13:54:57;103738.13;;;12.11;71.26
71716;BME280;59568;52.128;5.434;2023-02-13T13:57:56;103736.31;;;12.11;70.89
71716;BME280;59568;52.128;5.434;2023-02-13T14:02:49;103730.16;;;12.06;71.28
71716;BME280;59568;52.128;5.434;2023-02-13T14:08:51;103734.66;;;11.98;71.44
71716;BME280;59568;52.128;5.434;2023-02-13T14:11:00;103727.69;;;11.92;71.13
71716;BME280;59568;52.128;5.434;2023-02-13T14:13:38;103729.75;;;11.90;71.70
71716;BME280;59568;52.128;5.434;2023-02-13T14:16:09;103727.47;;;11.94;71.67
71716;BME280;59568;52.128;5.434;2023-02-13T14:18:37;103722.13;;;12.01;71.86
71716;BME280;59568;52.128;5.434;2023-02-13T14:21:10;103721.25;;;12.07;71.97
71716;BME280;59568;52.128;5.434;2023-02-13T14:29:20;103710.63;;;11.90;71.52
71716;BME280;59568;52.128;5.434;2023-02-13T14:31:58;103711.69;;;11.82;71.84
71716;BME280;59568;52.128;5.434;2023-02-13T14:34:32;103714.41;;;11.75;71.49
71716;BME280;59568;52.128;5.434;2023-02-13T14:37:17;103715.38;;;11.63;71.23
71716;BME280;59568;52.128;5.434;2023-02-13T14:42:43;103719.09;;;11.55;71.62
71716;BME280;59568;52.128;5.434;2023-02-13T14:45:16;103714.31;;;11.52;71.88
71716;BME280;59568;52.128;5.434;2023-02-13T14:47:47;103711.91;;;11.50;72.44
71716;BME280;59568;52.128;5.434;2023-02-13T14:50:23;103707.69;;;11.49;72.56
71716;BME280;59568;52.128;5.434;2023-02-13T14:52:53;103715.03;;;11.40;72.49
71716;BME280;59568;52.128;5.434;2023-02-13T14:55:29;103704.50;;;11.29;72.35
71716;BME280;59568;52.128;5.434;2023-02-13T15:05:50;103693.47;;;11.08;73.16
71716;BME280;59568;52.128;5.434;2023-02-13T15:08:42;103696.94;;;11.02;73.31
71716;BME280;59568;52.128;5.434;2023-02-13T15:11:11;103696.81;;;10.97;73.67
71716;BME280;59568;52.128;5.434;2023-02-13T15:14:32;103700.50;;;10.89;73.92
71716;BME280;59568;52.128;5.434;2023-02-13T15:19:34;103700.84;;;10.74;74.19
71716;BME280;59568;52.128;5.434;2023-02-13T15:22:04;103699.09;;;10.68;74.44
71716;BME280;59568;52.128;5.434;2023-02-13T15:24:43;103698.50;;;10.66;75.01
71716;BME280;59568;52.128;5.434;2023-02-13T15:27:18;103694.72;;;10.62;75.28
71716;BME280;59568;52.128;5.434;2023-02-13T15:30:13;103705.44;;;10.54;75.12